sensor_id;sensor_type;location;lat;lon;timestamp;temperature;humidity
60313;DHT22;46158;52.850;6.970;2023-03-01T00:01:02;12.00;74.40
60313;DHT22;46158;52.850;6.970;2023-03-01T00:03:28;12.00;74.30
60313;DHT22;46158;52.850;6.970;2023-03-01T00:05:54;11.90;74.20
60313;DHT22;46158;52.850;6.970;2023-03-01T00:08:20;11.90;74.30
60313;DHT22;46158;52.850;6.970;2023-03-01T00:10:45;11.90;74.20
60313;DHT22;46158;52.850;6.970;2023-03-01T00:13:11;11.90;74.20
60313;DHT22;46158;52.850;6.970;2023-03-01T00:15:39;11.90;74.10
60313;DHT22;46158;52.850;6.970;2023-03-01T00:18:07;11.90;74.10
60313;DHT22;46158;52.850;6.970;2023-03-01T00:20:33;11.80;74.00
60313;DHT22;46158;52.850;6.970;2023-03-01T00:22:59;11.80;74.00
60313;DHT22;46158;52.850;6.970;2023-03-01T00:25:25;11.80;74.00
60313;DHT22;46158;52.850;6.970;2023-03-01T00:27:50;11.80;74.00
60313;DHT22;46158;52.850;6.970;2023-03-01T00:30:16;11.80;74.00
60313;DHT22;46158;52.850;6.970;2023-03-01T00:32:42;11.80;74.00
60313;DHT22;46158;52.850;6.970;2023-03-01T00:35:08;11.80;74.00
60313;DHT22;46158;52.850;6.970;2023-03-01T00:37:33;11.80;74.00
60313;DHT22;46158;52.850;6.970;2023-03-01T00:39:59;11.80;74.00
60313;DHT22;46158;52.850;6.970;2023-03-01T00:42:24;11.80;74.00
60313;DHT22;46158;52.850;6.970;2023-03-01T00:44:50;11.80;73.90
60313;DHT22;46158;52.850;6.970;2023-03-01T00:47:15;11.80;73.90
60313;DHT22;46158;52.850;6.970;2023-03-01T00:49:41;11.80;73.80
60313;DHT22;46158;52.850;6.970;2023-03-01T00:52:07;11.80;73.80
60313;DHT22;46158;52.850;6.970;2023-03-01T00:54:32;11.80;73.80
60313;DHT22;46158;52.850;6.970;2023-03-01T00:56:58;11.80;73.70
60313;DHT22;46158;52.850;6.970;2023-03-01T00:59:23;11.80;73.70
60313;DHT22;46158;52.850;6.970;2023-03-01T01:01:49;11.80;73.60
60313;DHT22;46158;52.850;6.970;2023-03-01T01:04:14;11.80;73.60
60313;DHT22;46158;52.850;6.970;2023-03-01T01:09:08;11.80;73.50
60313;DHT22;46158;52.850;6.970;2023-03-01T01:11:34;11.80;73.50
60313;DHT22;46158;52.850;6.970;2023-03-01T01:14:01;11.80;73.40
60313;DHT22;46158;52.850;6.970;2023-03-01T01:16:27;11.80;73.40
60313;DHT22;46158;52.850;6.970;2023-03-01T01:18:53;11.80;73.40
60313;DHT22;46158;52.850;6.970;2023-03-01T01:21:20;11.80;73.40
60313;DHT22;46158;52.850;6.970;2023-03-01T01:23:47;11.80;73.30
60313;DHT22;46158;52.850;6.970;2023-03-01T01:26:18;11.80;73.30
60313;DHT22;46158;52.850;6.970;2023-03-01T01:28:44;11.80;73.30
60313;DHT22;46158;52.850;6.970;2023-03-01T01:31:10;11.80;73.20
60313;DHT22;46158;52.850;6.970;2023-03-01T01:33:36;11.70;73.20
60313;DHT22;46158;52.850;6.970;2023-03-01T01:36:03;11.70;73.10
60313;DHT22;46158;52.850;6.970;2023-03-01T01:38:28;11.70;73.10
60313;DHT22;46158;52.850;6.970;2023-03-01T01:40:54;11.80;73.10
60313;DHT22;46158;52.850;6.970;2023-03-01T01:43:24;11.70;73.00
60313;DHT22;46158;52.850;6.970;2023-03-01T01:45:52;11.70;73.00
60313;DHT22;46158;52.850;6.970;2023-03-01T01:48:22;11.70;73.00
60313;DHT22;46158;52.850;6.970;2023-03-01T01:50:56;11.70;73.00
60313;DHT22;46158;52.850;6.970;2023-03-01T01:53:24;11.70;73.00
60313;DHT22;46158;52.850;6.970;2023-03-01T01:55:53;11.70;73.00
60313;DHT22;46158;52.850;6.970;2023-03-01T01:58:22;11.70;73.10
60313;DHT22;46158;52.850;6.970;2023-03-01T02:00:49;11.70;73.10
60313;DHT22;46158;52.850;6.970;2023-03-01T02:03:28;11.70;73.10
60313;DHT22;46158;52.850;6.970;2023-03-01T02:06:04;11.70;73.10
60313;DHT22;46158;52.850;6.970;2023-03-01T02:08:31;11.60;73.10
60313;DHT22;46158;52.850;6.970;2023-03-01T02:10:58;11.70;73.20
60313;DHT22;46158;52.850;6.970;2023-03-01T02:13:25;11.60;73.20
60313;DHT22;46158;52.850;6.970;2023-03-01T02:15:50;11.60;73.20
60313;DHT22;46158;52.850;6.970;2023-03-01T02:18:17;11.60;73.20
60313;DHT22;46158;52.850;6.970;2023-03-01T02:23:28;11.60;73.20
60313;DHT22;46158;52.850;6.970;2023-03-01T02:28:23;11.60;73.30
60313;DHT22;46158;52.850;6.970;2023-03-01T02:30:49;11.60;73.20
60313;DHT22;46158;52.850;6.970;2023-03-01T02:33:34;11.60;73.20
60313;DHT22;46158;52.850;6.970;2023-03-01T02:36:02;11.60;73.20
60313;DHT22;46158;52.850;6.970;2023-03-01T02:38:29;11.60;73.20
60313;DHT22;46158;52.850;6.970;2023-03-01T02:40:55;11.50;73.20
60313;DHT22;46158;52.850;6.970;2023-03-01T02:43:22;11.50;73.20
60313;DHT22;46158;52.850;6.970;2023-03-01T02:45:49;11.50;73.20
60313;DHT22;46158;52.850;6.970;2023-03-01T02:48:15;11.50;73.30
60313;DHT22;46158;52.850;6.970;2023-03-01T02:53:23;11.50;73.20
60313;DHT22;46158;52.850;6.970;2023-03-01T02:55:50;11.50;73.30
60313;DHT22;46158;52.850;6.970;2023-03-01T02:58:15;11.50;73.30
60313;DHT22;46158;52.850;6.970;2023-03-01T03:00:42;11.50;73.30
60313;DHT22;46158;52.850;6.970;2023-03-01T03:03:15;11.50;73.30
60313;DHT22;46158;52.850;6.970;2023-03-01T03:05:41;11.50;73.30
60313;DHT22;46158;52.850;6.970;2023-03-01T03:08:07;11.50;73.30
60313;DHT22;46158;52.850;6.970;2023-03-01T03:10:34;11.50;73.30
60313;DHT22;46158;52.850;6.970;2023-03-01T03:13:04;11.50;74.00
60313;DHT22;46158;52.850;6.970;2023-03-01T03:15:30;11.50;73.30
60313;DHT22;46158;52.850;6.970;2023-03-01T03:17:56;11.50;73.30
60313;DHT22;46158;52.850;6.970;2023-03-01T03:20:23;11.50;73.40
60313;DHT22;46158;52.850;6.970;2023-03-01T03:22:50;11.50;73.40
60313;DHT22;46158;52.850;6.970;2023-03-01T03:25:16;11.50;73.40
60313;DHT22;46158;52.850;6.970;2023-03-01T03:27:42;11.50;73.40
60313;DHT22;46158;52.850;6.970;2023-03-01T03:30:10;11.50;73.40
60313;DHT22;46158;52.850;6.970;2023-03-01T03:32:39;11.50;73.40
60313;DHT22;46158;52.850;6.970;2023-03-01T03:35:05;11.50;73.50
60313;DHT22;46158;52.850;6.970;2023-03-01T03:37:40;11.50;73.40
60313;DHT22;46158;52.850;6.970;2023-03-01T03:40:25;11.50;73.50
60313;DHT22;46158;52.850;6.970;2023-03-01T03:42:50;11.60;73.50
60313;DHT22;46158;52.850;6.970;2023-03-01T03:45:17;11.50;73.40
60313;DHT22;46158;52.850;6.970;2023-03-01T03:47:43;11.50;73.40
60313;DHT22;46158;52.850;6.970;2023-03-01T03:50:12;11.60;73.50
60313;DHT22;46158;52.850;6.970;2023-03-01T03:52:38;11.60;73.50
60313;DHT22;46158;52.850;6.970;2023-03-01T03:55:05;11.60;73.40
60313;DHT22;46158;52.850;6.970;2023-03-01T03:57:36;11.60;73.40
60313;DHT22;46158;52.850;6.970;2023-03-01T04:00:02;11.60;73.40
60313;DHT22;46158;52.850;6.970;2023-03-01T04:02:30;11.60;73.40
60313;DHT22;46158;52.850;6.970;2023-03-01T04:04:56;11.60;73.40
60313;DHT22;46158;52.850;6.970;2023-03-01T04:07:22;11.60;73.40
60313;DHT22;46158;52.850;6.970;2023-03-01T04:09:47;11.70;73.50
60313;DHT22;46158;52.850;6.970;2023-03-01T04:12:13;11.60;73.40
60313;DHT22;46158;52.850;6.970;2023-03-01T04:14:38;11.60;73.40
60313;DHT22;46158;52.850;6.970;2023-03-01T04:17:04;11.70;73.40
60313;DHT22;46158;52.850;6.970;2023-03-01T04:19:31;11.70;73.40
60313;DHT22;46158;52.850;6.970;2023-03-01T04:22:02;11.60;73.30
60313;DHT22;46158;52.850;6.970;2023-03-01T04:24:33;11.70;73.40
60313;DHT22;46158;52.850;6.970;2023-03-01T04:26:58;11.70;73.40
60313;DHT22;46158;52.850;6.970;2023-03-01T04:29:24;11.70;73.40
60313;DHT22;46158;52.850;6.970;2023-03-01T04:31:49;11.70;73.30
60313;DHT22;46158;52.850;6.970;2023-03-01T04:34:15;11.70;73.30
60313;DHT22;46158;52.850;6.970;2023-03-01T04:36:40;11.70;73.30
60313;DHT22;46158;52.850;6.970;2023-03-01T04:39:06;11.70;73.20
60313;DHT22;46158;52.850;6.970;2023-03-01T04:41:37;11.70;73.20
60313;DHT22;46158;52.850;6.970;2023-03-01T04:44:08;11.70;73.10
60313;DHT22;46158;52.850;6.970;2023-03-01T04:46:35;11.70;73.10
60313;DHT22;46158;52.850;6.970;2023-03-01T04:49:02;11.80;73.10
60313;DHT22;46158;52.850;6.970;2023-03-01T04:51:28;11.70;73.00
60313;DHT22;46158;52.850;6.970;2023-03-01T04:53:53;11.70;73.00
60313;DHT22;46158;52.850;6.970;2023-03-01T04:56:19;11.70;73.00
60313;DHT22;46158;52.850;6.970;2023-03-01T04:58:45;11.80;73.00
60313;DHT22;46158;52.850;6.970;2023-03-01T05:01:11;11.70;73.00
60313;DHT22;46158;52.850;6.970;2023-03-01T05:03:41;11.70;73.00
60313;DHT22;46158;52.850;6.970;2023-03-01T05:06:07;11.80;73.00
60313;DHT22;46158;52.850;6.970;2023-03-01T05:08:32;11.70;73.00
60313;DHT22;46158;52.850;6.970;2023-03-01T05:10:59;11.70;73.10
60313;DHT22;46158;52.850;6.970;2023-03-01T05:13:25;11.70;73.10
60313;DHT22;46158;52.850;6.970;2023-03-01T05:18:20;11.70;73.30
60313;DHT22;46158;52.850;6.970;2023-03-01T05:20:46;11.80;73.50
60313;DHT22;46158;52.850;6.970;2023-03-01T05:23:12;11.80;73.60
60313;DHT22;46158;52.850;6.970;2023-03-01T05:25:38;11.70;73.60
60313;DHT22;46158;52.850;6.970;2023-03-01T05:28:06;11.80;73.80
60313;DHT22;46158;52.850;6.970;2023-03-01T05:30:32;11.80;73.80
60313;DHT22;46158;52.850;6.970;2023-03-01T05:32:58;11.80;73.90
60313;DHT22;46158;52.850;6.970;2023-03-01T05:35:23;11.80;73.90
60313;DHT22;46158;52.850;6.970;2023-03-01T05:37:49;11.80;74.00
60313;DHT22;46158;52.850;6.970;2023-03-01T05:40:16;11.80;74.00
60313;DHT22;46158;52.850;6.970;2023-03-01T05:42:42;11.80;74.00
60313;DHT22;46158;52.850;6.970;2023-03-01T05:45:09;11.90;74.10
60313;DHT22;46158;52.850;6.970;2023-03-01T05:47:38;11.90;74.20
60313;DHT22;46158;52.850;6.970;2023-03-01T05:50:10;11.90;74.20
60313;DHT22;46158;52.850;6.970;2023-03-01T05:52:36;11.90;74.20
60313;DHT22;46158;52.850;6.970;2023-03-01T05:55:01;11.90;74.30
60313;DHT22;46158;52.850;6.970;2023-03-01T05:57:30;11.90;74.40
60313;DHT22;46158;52.850;6.970;2023-03-01T05:59:56;11.90;74.50
60313;DHT22;46158;52.850;6.970;2023-03-01T06:02:21;11.90;74.60
60313;DHT22;46158;52.850;6.970;2023-03-01T06:04:47;11.90;74.60
60313;DHT22;46158;52.850;6.970;2023-03-01T06:07:13;11.90;74.60
60313;DHT22;46158;52.850;6.970;2023-03-01T06:09:38;12.00;74.70
60313;DHT22;46158;52.850;6.970;2023-03-01T06:12:04;12.00;74.80
60313;DHT22;46158;52.850;6.970;2023-03-01T06:14:30;12.00;74.80
60313;DHT22;46158;52.850;6.970;2023-03-01T06:16:56;12.00;74.80
60313;DHT22;46158;52.850;6.970;2023-03-01T06:19:21;12.00;74.80
60313;DHT22;46158;52.850;6.970;2023-03-01T06:21:47;12.00;74.80
60313;DHT22;46158;52.850;6.970;2023-03-01T06:24:12;12.10;74.90
60313;DHT22;46158;52.850;6.970;2023-03-01T06:26:39;12.00;74.90
60313;DHT22;46158;52.850;6.970;2023-03-01T06:29:05;12.10;74.90
60313;DHT22;46158;52.850;6.970;2023-03-01T06:31:30;12.00;74.90
60313;DHT22;46158;52.850;6.970;2023-03-01T06:33:56;12.10;75.00
60313;DHT22;46158;52.850;6.970;2023-03-01T06:36:21;12.10;74.90
60313;DHT22;46158;52.850;6.970;2023-03-01T06:38:47;12.10;74.90
60313;DHT22;46158;52.850;6.970;2023-03-01T06:41:13;12.10;74.90
60313;DHT22;46158;52.850;6.970;2023-03-01T06:43:38;12.10;75.60
60313;DHT22;46158;52.850;6.970;2023-03-01T06:46:04;12.10;74.90
60313;DHT22;46158;52.850;6.970;2023-03-01T06:48:32;12.10;74.90
60313;DHT22;46158;52.850;6.970;2023-03-01T06:50:59;12.10;74.90
60313;DHT22;46158;52.850;6.970;2023-03-01T06:53:26;12.10;74.90
60313;DHT22;46158;52.850;6.970;2023-03-01T06:55:55;12.10;74.90
60313;DHT22;46158;52.850;6.970;2023-03-01T06:58:21;12.10;74.90
60313;DHT22;46158;52.850;6.970;2023-03-01T07:00:47;12.10;74.90
60313;DHT22;46158;52.850;6.970;2023-03-01T07:03:12;12.10;74.90
60313;DHT22;46158;52.850;6.970;2023-03-01T07:05:38;12.10;74.70
60313;DHT22;46158;52.850;6.970;2023-03-01T07:08:03;12.10;74.60
60313;DHT22;46158;52.850;6.970;2023-03-01T07:10:29;12.10;74.50
60313;DHT22;46158;52.850;6.970;2023-03-01T07:12:55;12.20;74.60
60313;DHT22;46158;52.850;6.970;2023-03-01T07:15:21;12.20;74.70
60313;DHT22;46158;52.850;6.970;2023-03-01T07:17:46;12.20;74.70
60313;DHT22;46158;52.850;6.970;2023-03-01T07:20:15;12.20;74.70
60313;DHT22;46158;52.850;6.970;2023-03-01T07:22:42;12.20;74.60
60313;DHT22;46158;52.850;6.970;2023-03-01T07:25:08;12.20;74.70
60313;DHT22;46158;52.850;6.970;2023-03-01T07:27:34;12.20;74.50
60313;DHT22;46158;52.850;6.970;2023-03-01T07:29:59;12.20;74.50
60313;DHT22;46158;52.850;6.970;2023-03-01T07:32:25;12.30;74.50
60313;DHT22;46158;52.850;6.970;2023-03-01T07:34:51;12.30;74.50
60313;DHT22;46158;52.850;6.970;2023-03-01T07:37:16;12.30;74.50
60313;DHT22;46158;52.850;6.970;2023-03-01T07:39:42;12.30;74.50
60313;DHT22;46158;52.850;6.970;2023-03-01T07:42:08;12.30;74.50
60313;DHT22;46158;52.850;6.970;2023-03-01T07:44:33;12.30;74.50
60313;DHT22;46158;52.850;6.970;2023-03-01T07:47:00;12.30;74.50
60313;DHT22;46158;52.850;6.970;2023-03-01T07:49:25;12.30;74.50
60313;DHT22;46158;52.850;6.970;2023-03-01T07:51:54;12.30;74.50
60313;DHT22;46158;52.850;6.970;2023-03-01T07:54:20;12.40;74.50
60313;DHT22;46158;52.850;6.970;2023-03-01T07:56:45;12.40;74.50
60313;DHT22;46158;52.850;6.970;2023-03-01T07:59:11;12.40;74.50
60313;DHT22;46158;52.850;6.970;2023-03-01T08:01:36;12.40;74.40
60313;DHT22;46158;52.850;6.970;2023-03-01T08:04:02;12.40;74.50
60313;DHT22;46158;52.850;6.970;2023-03-01T08:06:28;12.50;74.50
60313;DHT22;46158;52.850;6.970;2023-03-01T08:08:53;12.40;74.60
60313;DHT22;46158;52.850;6.970;2023-03-01T08:11:22;12.50;74.40
60313;DHT22;46158;52.850;6.970;2023-03-01T08:13:48;12.40;74.30
60313;DHT22;46158;52.850;6.970;2023-03-01T08:16:14;12.50;74.40
60313;DHT22;46158;52.850;6.970;2023-03-01T08:18:40;12.50;74.40
60313;DHT22;46158;52.850;6.970;2023-03-01T08:21:16;12.50;74.30
60313;DHT22;46158;52.850;6.970;2023-03-01T08:23:42;12.50;74.40
60313;DHT22;46158;52.850;6.970;2023-03-01T08:28:37;12.50;74.50
60313;DHT22;46158;52.850;6.970;2023-03-01T08:31:03;12.50;74.40
60313;DHT22;46158;52.850;6.970;2023-03-01T08:33:39;12.50;74.40
60313;DHT22;46158;52.850;6.970;2023-03-01T08:36:05;12.50;74.50
60313;DHT22;46158;52.850;6.970;2023-03-01T08:38:32;12.50;74.50
60313;DHT22;46158;52.850;6.970;2023-03-01T08:41:01;12.60;74.60
60313;DHT22;46158;52.850;6.970;2023-03-01T08:43:28;12.60;74.60
60313;DHT22;46158;52.850;6.970;2023-03-01T08:45:53;12.60;74.50
60313;DHT22;46158;52.850;6.970;2023-03-01T08:48:19;12.60;74.50
60313;DHT22;46158;52.850;6.970;2023-03-01T08:50:44;12.60;74.50
60313;DHT22;46158;52.850;6.970;2023-03-01T08:53:10;12.60;74.40
60313;DHT22;46158;52.850;6.970;2023-03-01T08:55:36;12.60;74.40
60313;DHT22;46158;52.850;6.970;2023-03-01T08:58:02;12.60;74.40
60313;DHT22;46158;52.850;6.970;2023-03-01T09:00:27;12.60;74.40
60313;DHT22;46158;52.850;6.970;2023-03-01T09:02:53;12.60;74.40
60313;DHT22;46158;52.850;6.970;2023-03-01T09:05:19;12.60;74.30
60313;DHT22;46158;52.850;6.970;2023-03-01T09:07:45;12.60;74.40
60313;DHT22;46158;52.850;6.970;2023-03-01T09:10:11;12.60;74.40
60313;DHT22;46158;52.850;6.970;2023-03-01T09:12:36;12.70;74.50
60313;DHT22;46158;52.850;6.970;2023-03-01T09:15:02;12.70;74.40
60313;DHT22;46158;52.850;6.970;2023-03-01T09:17:28;12.70;74.30
60313;DHT22;46158;52.850;6.970;2023-03-01T09:19:53;12.70;74.20
60313;DHT22;46158;52.850;6.970;2023-03-01T09:22:22;12.70;74.20
60313;DHT22;46158;52.850;6.970;2023-03-01T09:24:48;12.80;74.30
60313;DHT22;46158;52.850;6.970;2023-03-01T09:27:14;12.70;73.90
60313;DHT22;46158;52.850;6.970;2023-03-01T09:29:40;12.70;74.00
60313;DHT22;46158;52.850;6.970;2023-03-01T09:32:05;12.70;74.00
60313;DHT22;46158;52.850;6.970;2023-03-01T09:34:33;12.70;74.20
60313;DHT22;46158;52.850;6.970;2023-03-01T09:37:19;12.70;74.20
60313;DHT22;46158;52.850;6.970;2023-03-01T09:39:44;12.70;74.30
60313;DHT22;46158;52.850;6.970;2023-03-01T09:42:10;12.80;74.40
60313;DHT22;46158;52.850;6.970;2023-03-01T09:47:08;12.80;74.40
60313;DHT22;46158;52.850;6.970;2023-03-01T09:49:35;12.80;74.40
60313;DHT22;46158;52.850;6.970;2023-03-01T09:52:19;12.70;74.40
60313;DHT22;46158;52.850;6.970;2023-03-01T09:54:47;12.80;74.50
60313;DHT22;46158;52.850;6.970;2023-03-01T09:57:33;12.80;74.50
60313;DHT22;46158;52.850;6.970;2023-03-01T10:00:05;12.80;74.50
60313;DHT22;46158;52.850;6.970;2023-03-01T10:05:05;12.80;74.60
60313;DHT22;46158;52.850;6.970;2023-03-01T10:07:50;12.80;74.60
60313;DHT22;46158;52.850;6.970;2023-03-01T10:10:32;12.80;74.60
60313;DHT22;46158;52.850;6.970;2023-03-01T10:12:59;12.80;75.10
60313;DHT22;46158;52.850;6.970;2023-03-01T10:15:29;12.80;75.00
60313;DHT22;46158;52.850;6.970;2023-03-01T10:17:57;12.80;74.90
60313;DHT22;46158;52.850;6.970;2023-03-01T10:20:48;12.80;74.80
60313;DHT22;46158;52.850;6.970;2023-03-01T10:23:16;12.70;74.70
60313;DHT22;46158;52.850;6.970;2023-03-01T10:28:21;12.70;74.80
60313;DHT22;46158;52.850;6.970;2023-03-01T10:30:47;12.80;74.80
60313;DHT22;46158;52.850;6.970;2023-03-01T10:33:16;12.70;74.80
60313;DHT22;46158;52.850;6.970;2023-03-01T10:35:42;12.70;74.80
60313;DHT22;46158;52.850;6.970;2023-03-01T10:38:09;12.80;74.90
60313;DHT22;46158;52.850;6.970;2023-03-01T10:40:36;12.70;75.00
60313;DHT22;46158;52.850;6.970;2023-03-01T10:43:14;12.70;74.60
60313;DHT22;46158;52.850;6.970;2023-03-01T10:45:40;12.70;74.70
60313;DHT22;46158;52.850;6.970;2023-03-01T10:48:13;12.70;74.80
60313;DHT22;46158;52.850;6.970;2023-03-01T10:50:43;12.70;74.80
60313;DHT22;46158;52.850;6.970;2023-03-01T10:55:44;12.70;74.90
60313;DHT22;46158;52.850;6.970;2023-03-01T11:00:54;12.70;75.00
60313;DHT22;46158;52.850;6.970;2023-03-01T11:03:22;12.70;75.00
60313;DHT22;46158;52.850;6.970;2023-03-01T11:11:40;12.70;74.90
60313;DHT22;46158;52.850;6.970;2023-03-01T11:13:50;12.70;74.90
60313;DHT22;46158;52.850;6.970;2023-03-01T11:16:17;12.70;74.90
60313;DHT22;46158;52.850;6.970;2023-03-01T11:18:55;12.70;74.90
60313;DHT22;46158;52.850;6.970;2023-03-01T11:21:21;12.70;74.90
60313;DHT22;46158;52.850;6.970;2023-03-01T11:23:47;12.70;75.00
60313;DHT22;46158;52.850;6.970;2023-03-01T11:26:12;12.70;74.90
60313;DHT22;46158;52.850;6.970;2023-03-01T11:28:39;12.70;75.00
60313;DHT22;46158;52.850;6.970;2023-03-01T11:31:10;12.70;75.00
60313;DHT22;46158;52.850;6.970;2023-03-01T11:33:47;12.70;75.00
60313;DHT22;46158;52.850;6.970;2023-03-01T11:36:24;12.60;74.80
60313;DHT22;46158;52.850;6.970;2023-03-01T11:38:53;12.70;74.80
60313;DHT22;46158;52.850;6.970;2023-03-01T11:41:31;12.60;74.70
60313;DHT22;46158;52.850;6.970;2023-03-01T11:49:22;12.60;74.90
60313;DHT22;46158;52.850;6.970;2023-03-01T11:54:34;12.60;75.00
60313;DHT22;46158;52.850;6.970;2023-03-01T12:02:42;12.60;75.10
60313;DHT22;46158;52.850;6.970;2023-03-01T12:08:01;12.60;75.10
60313;DHT22;46158;52.850;6.970;2023-03-01T12:10:38;12.60;75.20
60313;DHT22;46158;52.850;6.970;2023-03-01T12:18:30;12.60;75.10
60313;DHT22;46158;52.850;6.970;2023-03-01T12:21:10;12.60;75.10
60313;DHT22;46158;52.850;6.970;2023-03-01T12:23:54;12.60;75.00
60313;DHT22;46158;52.850;6.970;2023-03-01T12:49:23;12.70;75.00
60313;DHT22;46158;52.850;6.970;2023-03-01T12:54:35;12.70;75.00
60313;DHT22;46158;52.850;6.970;2023-03-01T12:57:25;12.70;75.00
60313;DHT22;46158;52.850;6.970;2023-03-01T13:02:33;12.80;75.00
60313;DHT22;46158;52.850;6.970;2023-03-01T13:07:50;12.80;75.00
60313;DHT22;46158;52.850;6.970;2023-03-01T13:10:26;12.80;75.00
60313;DHT22;46158;52.850;6.970;2023-03-01T13:20:19;12.80;75.00
60313;DHT22;46158;52.850;6.970;2023-03-01T13:22:45;12.80;75.00
60313;DHT22;46158;52.850;6.970;2023-03-01T13:25:15;12.80;74.90
60313;DHT22;46158;52.850;6.970;2023-03-01T13:27:42;12.80;75.00
60313;DHT22;46158;52.850;6.970;2023-03-01T13:32:52;12.80;74.70
60313;DHT22;46158;52.850;6.970;2023-03-01T13:35:41;12.80;74.70
60313;DHT22;46158;52.850;6.970;2023-03-01T13:40:57;12.90;74.80
60313;DHT22;46158;52.850;6.970;2023-03-01T13:43:27;12.80;74.70
60313;DHT22;46158;52.850;6.970;2023-03-01T13:45:53;12.90;74.80
60313;DHT22;46158;52.850;6.970;2023-03-01T13:48:23;12.90;74.70
60313;DHT22;46158;52.850;6.970;2023-03-01T13:50:55;12.90;74.60
60313;DHT22;46158;52.850;6.970;2023-03-01T13:53:24;12.90;74.50
60313;DHT22;46158;52.850;6.970;2023-03-01T13:55:52;12.80;74.50
60313;DHT22;46158;52.850;6.970;2023-03-01T13:58:24;12.80;74.40
60313;DHT22;46158;52.850;6.970;2023-03-01T14:00:57;12.90;74.50
60313;DHT22;46158;52.850;6.970;2023-03-01T14:03:23;12.90;74.50
60313;DHT22;46158;52.850;6.970;2023-03-01T14:06:09;12.90;74.50
60313;DHT22;46158;52.850;6.970;2023-03-01T14:08:37;12.90;74.50
60313;DHT22;46158;52.850;6.970;2023-03-01T14:13:58;12.90;74.40
60313;DHT22;46158;52.850;6.970;2023-03-01T14:16:34;12.90;74.20
60313;DHT22;46158;52.850;6.970;2023-03-01T14:19:09;12.90;73.80
60313;DHT22;46158;52.850;6.970;2023-03-01T14:21:39;12.90;73.90
60313;DHT22;46158;52.850;6.970;2023-03-01T14:24:05;12.90;74.00
60313;DHT22;46158;52.850;6.970;2023-03-01T14:26:31;12.90;74.00
60313;DHT22;46158;52.850;6.970;2023-03-01T14:28:57;12.90;74.00
60313;DHT22;46158;52.850;6.970;2023-03-01T14:31:38;12.90;74.00
60313;DHT22;46158;52.850;6.970;2023-03-01T14:34:04;12.90;74.00
60313;DHT22;46158;52.850;6.970;2023-03-01T14:36:31;12.90;74.00
60313;DHT22;46158;52.850;6.970;2023-03-01T14:38:58;12.90;73.90
60313;DHT22;46158;52.850;6.970;2023-03-01T14:41:30;12.90;73.90
60313;DHT22;46158;52.850;6.970;2023-03-01T14:43:58;12.90;73.90
60313;DHT22;46158;52.850;6.970;2023-03-01T14:48:58;12.90;73.90
60313;DHT22;46158;52.850;6.970;2023-03-01T14:51:26;12.90;73.90
60313;DHT22;46158;52.850;6.970;2023-03-01T14:53:52;12.90;73.90
60313;DHT22;46158;52.850;6.970;2023-03-01T14:56:17;12.90;74.00
60313;DHT22;46158;52.850;6.970;2023-03-01T14:58:44;12.90;74.00
60313;DHT22;46158;52.850;6.970;2023-03-01T15:01:10;12.90;74.00
60313;DHT22;46158;52.850;6.970;2023-03-01T15:03:40;12.90;74.10
60313;DHT22;46158;52.850;6.970;2023-03-01T15:06:08;12.80;74.00
60313;DHT22;46158;52.850;6.970;2023-03-01T15:08:34;12.80;74.10
60313;DHT22;46158;52.850;6.970;2023-03-01T15:13:44;12.90;74.10
60313;DHT22;46158;52.850;6.970;2023-03-01T15:18:44;12.90;74.20
60313;DHT22;46158;52.850;6.970;2023-03-01T15:21:52;12.80;74.20
60313;DHT22;46158;52.850;6.970;2023-03-01T15:24:06;12.80;74.20
60313;DHT22;46158;52.850;6.970;2023-03-01T15:29:20;12.90;74.30
60313;DHT22;46158;52.850;6.970;2023-03-01T15:31:57;12.90;74.30
60313;DHT22;46158;52.850;6.970;2023-03-01T15:34:24;12.90;74.40
60313;DHT22;46158;52.850;6.970;2023-03-01T15:36:53;12.80;74.40
60313;DHT22;46158;52.850;6.970;2023-03-01T15:39:29;12.80;74.40
60313;DHT22;46158;52.850;6.970;2023-03-01T15:41:55;12.90;74.60
60313;DHT22;46158;52.850;6.970;2023-03-01T15:44:35;12.80;74.60
60313;DHT22;46158;52.850;6.970;2023-03-01T15:47:01;12.80;74.70
60313;DHT22;46158;52.850;6.970;2023-03-01T15:49:35;12.80;74.80
60313;DHT22;46158;52.850;6.970;2023-03-01T15:52:02;12.90;74.80
60313;DHT22;46158;52.850;6.970;2023-03-01T15:54:28;12.80;74.80
60313;DHT22;46158;52.850;6.970;2023-03-01T15:56:54;12.90;74.90
60313;DHT22;46158;52.850;6.970;2023-03-01T15:59:20;12.80;74.90
60313;DHT22;46158;52.850;6.970;2023-03-01T16:01:48;12.90;75.00
60313;DHT22;46158;52.850;6.970;2023-03-01T16:04:15;12.80;74.90
60313;DHT22;46158;52.850;6.970;2023-03-01T16:06:46;12.90;75.00
60313;DHT22;46158;52.850;6.970;2023-03-01T16:09:12;12.80;75.00
60313;DHT22;46158;52.850;6.970;2023-03-01T16:11:38;12.80;75.00
60313;DHT22;46158;52.850;6.970;2023-03-01T16:14:06;12.90;75.20
60313;DHT22;46158;52.850;6.970;2023-03-01T16:16:31;12.90;75.20
60313;DHT22;46158;52.850;6.970;2023-03-01T16:18:57;12.80;75.10
60313;DHT22;46158;52.850;6.970;2023-03-01T16:21:23;12.90;75.20
60313;DHT22;46158;52.850;6.970;2023-03-01T16:23:49;12.90;75.20
60313;DHT22;46158;52.850;6.970;2023-03-01T16:26:16;12.90;75.30
60313;DHT22;46158;52.850;6.970;2023-03-01T16:28:42;12.90;75.30
60313;DHT22;46158;52.850;6.970;2023-03-01T16:31:08;12.80;75.30
60313;DHT22;46158;52.850;6.970;2023-03-01T16:33:36;12.90;75.70
60313;DHT22;46158;52.850;6.970;2023-03-01T16:36:07;12.90;75.40
60313;DHT22;46158;52.850;6.970;2023-03-01T16:38:33;12.90;75.80
60313;DHT22;46158;52.850;6.970;2023-03-01T16:41:00;12.90;75.30
60313;DHT22;46158;52.850;6.970;2023-03-01T16:43:26;12.90;75.30
60313;DHT22;46158;52.850;6.970;2023-03-01T16:45:51;12.90;75.30
60313;DHT22;46158;52.850;6.970;2023-03-01T16:48:17;12.80;75.10
60313;DHT22;46158;52.850;6.970;2023-03-01T16:50:43;12.90;75.20
60313;DHT22;46158;52.850;6.970;2023-03-01T16:53:09;12.90;75.30
60313;DHT22;46158;52.850;6.970;2023-03-01T16:55:35;12.90;75.40
60313;DHT22;46158;52.850;6.970;2023-03-01T16:58:01;12.80;75.40
60313;DHT22;46158;52.850;6.970;2023-03-01T17:00:27;12.90;75.60
60313;DHT22;46158;52.850;6.970;2023-03-01T17:02:53;12.90;75.70
60313;DHT22;46158;52.850;6.970;2023-03-01T17:05:19;12.90;75.80
60313;DHT22;46158;52.850;6.970;2023-03-01T17:07:46;12.90;75.90
60313;DHT22;46158;52.850;6.970;2023-03-01T17:10:12;12.90;75.90
60313;DHT22;46158;52.850;6.970;2023-03-01T17:12:37;12.90;76.00
60313;DHT22;46158;52.850;6.970;2023-03-01T17:15:04;12.80;76.00
60313;DHT22;46158;52.850;6.970;2023-03-01T17:17:29;12.90;76.00
60313;DHT22;46158;52.850;6.970;2023-03-01T17:19:57;12.90;76.10
60313;DHT22;46158;52.850;6.970;2023-03-01T17:22:23;12.90;76.20
60313;DHT22;46158;52.850;6.970;2023-03-01T17:24:49;12.90;76.20
60313;DHT22;46158;52.850;6.970;2023-03-01T17:27:14;12.90;76.30